Time;durP1;ratioP1;P1;durP2;ratioP2;P2;SDS_P1;SDS_P2;PMS_P1;PMS_P2;Temp;Humidity;BMP_temperature;BMP_pressure;BME280_temperature;BME280_humidity;BME280_pressure;Samples;Min_cycle;Max_cycle;Signal;HPM_P1;HPM_P2
2022/06/29 00:00:20;;;;;;;4.97;3.05;;;19.10;64.40;;;;;;2322337;58;21670;-72
2022/06/29 00:02:49;;;;;;;2.90;2.45;;;19.10;64.20;;;;;;2322133;58;21064;-72
2022/06/29 00:05:18;;;;;;;4.30;3.03;;;19.00;64.10;;;;;;2322610;58;21518;-72
2022/06/29 00:07:46;;;;;;;4.18;2.80;;;19.00;64.30;;;;;;2322609;58;21064;-72
2022/06/29 00:10:15;;;;;;;4.07;2.70;;;19.00;64.30;;;;;;2322793;58;21043;-72
2022/06/29 00:12:44;;;;;;;5.18;3.20;;;19.00;64.40;;;;;;2322710;58;21059;-72
2022/06/29 00:15:13;;;;;;;5.50;2.70;;;18.90;64.20;;;;;;2322230;58;21163;-72
2022/06/29 00:17:41;;;;;;;3.70;2.60;;;18.90;64.30;;;;;;2322359;58;21645;-72
2022/06/29 00:20:10;;;;;;;2.65;2.40;;;18.90;64.30;;;;;;2322728;58;21067;-72
2022/06/29 00:22:39;;;;;;;3.35;2.50;;;18.80;64.50;;;;;;2322791;58;21059;-72
2022/06/29 00:25:08;;;;;;;2.65;2.45;;;18.80;64.50;;;;;;2322319;58;21817;-72
2022/06/29 00:27:36;;;;;;;7.57;3.05;;;18.80;64.50;;;;;;2322470;58;21032;-72
2022/06/29 00:30:05;;;;;;;3.45;2.20;;;18.80;64.60;;;;;;2322358;58;21112;-72
2022/06/29 00:32:32;;;;;;;3.33;2.55;;;18.70;65.30;;;;;;2322488;58;21052;-72
2022/06/29 00:35:00;;;;;;;2.62;2.25;;;18.70;64.80;;;;;;2563881;54;21206;-72
2022/06/29 00:37:28;;;;;;;2.60;2.40;;;18.70;64.90;;;;;;2321871;58;21072;-72
2022/06/29 00:39:56;;;;;;;3.35;2.40;;;18.70;65.00;;;;;;2320917;58;21434;-72
2022/06/29 00:42:23;;;;;;;2.85;2.55;;;18.70;65.10;;;;;;2323037;58;21052;-72
2022/06/29 00:44:51;;;;;;;2.95;2.75;;;18.70;64.80;;;;;;2322763;58;21046;-72
2022/06/29 00:47:18;;;;;;;3.05;2.25;;;18.60;64.80;;;;;;2322233;58;21056;-72
2022/06/29 00:49:47;;;;;;;3.05;2.65;;;18.60;65.20;;;;;;2322330;58;21127;-72
2022/06/29 00:52:17;;;;;;;2.83;2.28;;;18.60;65.00;;;;;;2322710;58;21060;-72
2022/06/29 00:54:47;;;;;;;3.75;2.42;;;18.50;64.90;;;;;;2322506;58;21136;-72
2022/06/29 00:57:16;;;;;;;3.30;2.72;;;18.50;64.70;;;;;;2322618;58;21558;-72
2022/06/29 00:59:47;;;;;;;3.30;2.45;;;18.50;64.70;;;;;;2564549;54;21398;-72
2022/06/29 01:02:17;;;;;;;3.22;2.92;;;18.50;65.00;;;;;;2322966;58;21028;-72
2022/06/29 01:04:46;;;;;;;3.70;2.62;;;18.50;65.00;;;;;;2322382;58;21788;-72
2022/06/29 01:07:15;;;;;;;3.97;3.20;;;18.50;65.10;;;;;;2322817;58;21646;-72
2022/06/29 01:09:43;;;;;;;2.97;2.55;;;18.40;65.00;;;;;;2321651;58;21134;-72
2022/06/29 01:12:11;;;;;;;3.28;2.60;;;18.40;65.20;;;;;;2322766;58;21043;-72
2022/06/29 01:14:41;;;;;;;3.45;3.03;;;18.40;65.40;;;;;;2322682;58;21099;-72
2022/06/29 01:17:09;;;;;;;3.97;3.15;;;18.40;65.00;;;;;;2564442;54;21168;-72
2022/06/29 01:19:36;;;;;;;3.60;2.90;;;18.30;65.30;;;;;;2322325;58;21051;-72
2022/06/29 01:22:10;;;;;;;2.75;2.42;;;18.30;65.30;;;;;;2322760;58;21099;-72
2022/06/29 01:24:38;;;;;;;3.00;2.47;;;18.30;65.40;;;;;;2321503;58;21519;-72
2022/06/29 01:27:06;;;;;;;4.87;2.70;;;18.30;65.30;;;;;;2322654;58;21040;-72
2022/06/29 01:29:34;;;;;;;3.72;2.45;;;18.30;65.40;;;;;;2322438;58;21059;-72
2022/06/29 01:32:02;;;;;;;2.70;2.50;;;18.30;65.40;;;;;;2322879;58;21111;-72
2022/06/29 01:34:31;;;;;;;2.47;2.28;;;18.20;65.40;;;;;;2321023;58;21112;-72
2022/06/29 01:37:00;;;;;;;6.43;2.67;;;18.20;65.50;;;;;;2321990;58;21065;-72
2022/06/29 01:39:28;;;;;;;4.62;2.70;;;18.20;65.60;;;;;;2564795;54;21052;-72
2022/06/29 01:41:56;;;;;;;3.55;2.40;;;18.20;65.40;;;;;;2322876;58;21275;-72
2022/06/29 01:44:24;;;;;;;3.83;2.42;;;18.20;65.40;;;;;;2321890;58;21052;-72
2022/06/29 01:46:52;;;;;;;3.78;2.62;;;18.10;65.40;;;;;;2322335;58;21064;-72
2022/06/29 01:49:19;;;;;;;3.03;2.78;;;18.10;65.30;;;;;;2322022;58;21714;-72
2022/06/29 01:51:47;;;;;;;4.07;2.80;;;18.10;65.40;;;;;;2322564;58;21064;-72
2022/06/29 01:54:14;;;;;;;2.92;2.62;;;18.10;65.30;;;;;;2322934;58;21539;-72
2022/06/29 01:56:42;;;;;;;2.87;2.30;;;18.10;65.40;;;;;;2321729;58;21064;-72
2022/06/29 01:59:09;;;;;;;4.12;2.72;;;18.00;65.70;;;;;;2322902;58;21079;-72
2022/06/29 02:01:37;;;;;;;2.90;2.45;;;18.00;65.90;;;;;;2321422;58;21068;-72
2022/06/29 02:04:05;;;;;;;2.85;2.55;;;18.00;65.70;;;;;;2322669;58;21143;-72
2022/06/29 02:06:33;;;;;;;2.20;2.00;;;18.00;65.60;;;;;;2322281;58;21103;-72
2022/06/29 02:09:00;;;;;;;3.45;2.58;;;17.90;65.80;;;;;;2322525;58;21032;-72
2022/06/29 02:11:28;;;;;;;2.85;2.62;;;17.90;65.90;;;;;;2322442;58;21048;-72
2022/06/29 02:13:55;;;;;;;4.07;2.58;;;17.90;65.80;;;;;;2322477;58;21141;-72
2022/06/29 02:16:23;;;;;;;2.53;2.30;;;17.90;66.10;;;;;;2321979;58;21064;-72
2022/06/29 02:18:50;;;;;;;3.10;2.53;;;17.90;66.10;;;;;;2322083;58;21040;-72
2022/06/29 02:21:18;;;;;;;4.55;2.37;;;17.90;65.80;;;;;;2322632;58;21060;-72
2022/06/29 02:23:46;;;;;;;3.40;2.55;;;17.80;65.80;;;;;;2563923;54;21140;-72
2022/06/29 02:26:13;;;;;;;2.75;2.25;;;17.80;65.70;;;;;;2322179;58;21120;-72
2022/06/29 02:28:41;;;;;;;3.15;2.53;;;17.80;65.80;;;;;;2322751;58;21064;-72
2022/06/29 02:36:40;;;;;;;2.62;2.35;;;17.70;66.00;;;;;;2321994;58;21012;-73
2022/06/29 02:39:07;;;;;;;3.25;2.95;;;17.70;66.30;;;;;;2321927;58;21615;-73
2022/06/29 02:41:35;;;;;;;2.85;2.65;;;17.70;66.40;;;;;;2322440;58;21690;-73
2022/06/29 02:44:02;;;;;;;3.33;2.53;;;17.70;66.50;;;;;;2565043;54;21052;-73
2022/06/29 02:46:31;;;;;;;3.50;2.60;;;17.70;66.60;;;;;;2322256;58;21127;-74
2022/06/29 02:48:58;;;;;;;4.22;2.47;;;17.60;66.70;;;;;;2322267;58;21593;-73
2022/06/29 02:51:25;;;;;;;2.83;2.50;;;17.60;66.70;;;;;;2322353;58;21071;-74
2022/06/29 02:53:53;;;;;;;5.80;2.62;;;17.60;66.90;;;;;;2322797;58;21108;-73
2022/06/29 02:56:20;;;;;;;3.12;2.65;;;17.60;66.70;;;;;;2322494;58;21044;-74
2022/06/29 02:58:48;;;;;;;3.37;2.50;;;17.60;66.70;;;;;;2321904;58;21130;-73
2022/06/29 03:01:15;;;;;;;5.65;2.83;;;17.50;66.50;;;;;;2564176;54;21099;-73
2022/06/29 03:03:43;;;;;;;3.30;2.78;;;17.50;66.60;;;;;;2322436;58;21072;-73
2022/06/29 03:08:47;;;;;;;3.92;2.45;;;17.50;66.90;;;;;;2353306;57;22054;-71
2022/06/29 03:11:14;;;;;;;3.05;2.72;;;17.50;67.00;;;;;;2347295;57;22200;-72
2022/06/29 03:13:41;;;;;;;6.45;3.17;;;17.50;67.00;;;;;;2347170;57;21515;-71
2022/06/29 03:16:09;;;;;;;2.80;2.37;;;17.40;66.90;;;;;;2594539;53;21121;-71
2022/06/29 03:18:36;;;;;;;4.10;2.50;;;17.40;67.20;;;;;;2347220;57;21037;-71
2022/06/29 03:21:04;;;;;;;3.35;2.87;;;17.40;67.40;;;;;;2347498;57;21038;-71
2022/06/29 03:23:32;;;;;;;4.90;2.40;;;17.40;67.20;;;;;;2347376;57;21673;-71
2022/06/29 03:25:59;;;;;;;5.62;2.60;;;17.40;67.40;;;;;;2346919;57;22073;-71
2022/06/29 03:28:26;;;;;;;4.18;2.70;;;17.30;67.30;;;;;;2346849;57;21101;-72
2022/06/29 03:30:54;;;;;;;6.10;2.72;;;17.30;67.60;;;;;;2347003;57;21664;-71
2022/06/29 03:33:22;;;;;;;4.55;2.67;;;17.30;68.00;;;;;;2347091;57;21034;-71
2022/06/29 03:35:49;;;;;;;6.30;3.03;;;17.30;68.00;;;;;;2347519;57;21046;-71
2022/06/29 03:38:17;;;;;;;3.55;2.50;;;17.30;68.20;;;;;;2346847;57;21061;-71
2022/06/29 03:40:44;;;;;;;3.33;2.37;;;17.30;68.30;;;;;;2347108;57;21045;-71
2022/06/29 03:43:12;;;;;;;2.87;2.12;;;17.40;68.40;;;;;;2346919;57;21200;-71
2022/06/29 03:45:39;;;;;;;2.58;2.37;;;17.40;68.30;;;;;;2347333;57;21058;-72
2022/06/29 03:48:08;;;;;;;2.50;2.30;;;17.40;68.50;;;;;;2346710;57;21125;-71
2022/06/29 03:50:36;;;;;;;3.65;2.50;;;17.40;68.60;;;;;;2347011;57;21045;-71
2022/06/29 03:53:03;;;;;;;3.37;2.17;;;17.50;68.70;;;;;;2346943;57;21188;-71
2022/06/29 03:55:30;;;;;;;4.43;2.40;;;17.50;68.80;;;;;;2346808;57;21041;-72
2022/06/29 03:57:58;;;;;;;3.85;2.05;;;17.50;68.90;;;;;;2347238;57;21096;-72
2022/06/29 04:00:25;;;;;;;5.32;2.33;;;17.50;68.90;;;;;;2345477;57;21587;-71
2022/06/29 04:02:53;;;;;;;5.40;2.58;;;17.60;69.00;;;;;;2345547;57;21176;-71
2022/06/29 04:05:21;;;;;;;2.92;2.37;;;17.60;69.00;;;;;;2345807;57;21563;-71
2022/06/29 04:07:48;;;;;;;4.20;2.40;;;17.70;69.00;;;;;;2344864;57;21137;-72
2022/06/29 04:10:16;;;;;;;4.47;2.20;;;17.70;69.00;;;;;;2344870;57;21112;-71
2022/06/29 04:13:03;;;;;;;6.03;2.40;;;17.80;69.00;;;;;;2345702;56;21042;-71
2022/06/29 04:15:30;;;;;;;5.00;2.35;;;17.80;69.00;;;;;;2238600;60;21082;-75
2022/06/29 04:17:58;;;;;;;6.72;2.67;;;17.80;68.80;;;;;;2239274;60;21155;-76
2022/06/29 04:23:11;;;;;;;4.22;2.12;;;18.00;68.90;;;;;;2265232;59;21071;-75
2022/06/29 04:25:38;;;;;;;4.55;2.28;;;18.00;68.70;;;;;;2265534;59;21340;-75
2022/06/29 04:28:06;;;;;;;2.25;1.80;;;18.10;68.80;;;;;;2266982;59;21076;-75
2022/06/29 04:30:33;;;;;;;5.10;2.33;;;18.10;68.70;;;;;;2266368;59;21148;-75
2022/06/29 04:33:01;;;;;;;2.80;1.92;;;18.20;68.60;;;;;;2266718;59;21569;-75
2022/06/29 04:35:28;;;;;;;3.47;2.17;;;18.30;68.70;;;;;;2265770;59;21133;-75
2022/06/29 04:37:56;;;;;;;3.30;1.70;;;18.30;68.70;;;;;;2265968;59;22209;-75
2022/06/29 04:40:24;;;;;;;2.83;1.80;;;18.30;68.70;;;;;;2266390;59;21559;-75
2022/06/29 04:42:51;;;;;;;2.60;1.87;;;18.40;68.40;;;;;;2266992;59;21591;-75
2022/06/29 04:48:06;;;;;;;5.25;2.08;;;18.50;68.40;;;;;;2266731;59;21056;-75
2022/06/29 04:50:33;;;;;;;2.28;1.60;;;18.50;68.10;;;;;;2265693;59;21064;-75
2022/06/29 04:53:01;;;;;;;2.47;1.75;;;18.60;68.10;;;;;;2266861;59;21077;-75
2022/06/29 04:55:29;;;;;;;2.70;1.40;;;18.60;68.00;;;;;;2266402;59;21072;-76
2022/06/29 04:57:57;;;;;;;2.42;1.75;;;18.70;68.40;;;;;;2266466;59;21183;-76
2022/06/29 05:00:25;;;;;;;2.33;1.87;;;18.60;67.00;;;;;;2266854;59;21077;-76
2022/06/29 05:02:53;;;;;;;2.55;1.80;;;18.70;66.80;;;;;;2266665;59;21144;-76
2022/06/29 05:05:20;;;;;;;3.15;1.90;;;18.80;66.80;;;;;;2266320;59;21196;-76
2022/06/29 05:07:48;;;;;;;1.55;1.42;;;18.80;66.00;;;;;;2266000;59;21080;-75
2022/06/29 05:10:15;;;;;;;1.67;1.40;;;18.90;65.70;;;;;;2265293;59;21125;-76
2022/06/29 05:12:43;;;;;;;2.33;1.92;;;18.90;65.50;;;;;;2266077;59;21092;-75
2022/06/29 05:15:11;;;;;;;1.95;1.65;;;18.90;65.40;;;;;;2266307;59;21073;-75
2022/06/29 05:17:39;;;;;;;2.47;1.50;;;19.00;65.20;;;;;;2265748;59;21116;-75
2022/06/29 05:20:09;;;;;;;2.25;1.62;;;19.00;65.00;;;;;;2266253;59;21060;-75
2022/06/29 05:22:37;;;;;;;1.87;1.60;;;19.00;64.70;;;;;;2266268;59;21077;-76
2022/06/29 05:25:06;;;;;;;4.05;1.70;;;19.00;64.60;;;;;;2266646;59;21084;-76
2022/06/29 05:27:34;;;;;;;2.62;1.75;;;19.10;64.50;;;;;;2266777;59;21643;-75
2022/06/29 05:30:02;;;;;;;2.75;1.50;;;19.10;64.20;;;;;;2266105;59;21548;-75
2022/06/29 05:32:29;;;;;;;4.15;1.80;;;19.20;64.30;;;;;;2266518;59;21061;-75
2022/06/29 05:34:57;;;;;;;2.22;1.42;;;19.20;64.10;;;;;;2266537;59;21077;-75
2022/06/29 05:37:24;;;;;;;6.28;2.72;;;19.30;63.90;;;;;;2266738;59;21061;-76
2022/06/29 05:39:52;;;;;;;2.35;1.50;;;19.30;63.60;;;;;;2266902;59;21140;-75
2022/06/29 05:42:19;;;;;;;2.78;1.40;;;19.30;63.30;;;;;;2266858;59;21080;-75
2022/06/29 05:44:47;;;;;;;3.03;1.40;;;19.40;63.10;;;;;;2496885;54;21123;-75
2022/06/29 05:47:14;;;;;;;2.55;1.40;;;19.40;62.80;;;;;;2266385;59;21160;-75
2022/06/29 05:49:42;;;;;;;3.37;1.40;;;19.50;62.10;;;;;;2267233;59;21076;-75
2022/06/29 05:52:09;;;;;;;2.10;1.50;;;19.50;61.90;;;;;;2266865;59;21626;-75
2022/06/29 05:54:37;;;;;;;1.73;1.27;;;19.60;61.30;;;;;;2267207;59;21544;-75
2022/06/29 05:57:06;;;;;;;5.90;1.25;;;19.60;60.60;;;;;;2496404;55;21383;-75
2022/06/29 05:59:33;;;;;;;2.42;1.60;;;19.70;60.50;;;;;;2266769;59;21548;-75
2022/06/29 06:02:01;;;;;;;2.10;1.40;;;19.70;59.80;;;;;;2266246;59;21076;-75
2022/06/29 06:04:28;;;;;;;1.98;1.33;;;19.70;59.70;;;;;;2267009;59;21539;-75
2022/06/29 06:06:56;;;;;;;1.85;1.27;;;19.80;59.60;;;;;;2266421;59;22185;-75
2022/06/29 06:09:26;;;;;;;3.12;1.30;;;19.80;59.20;;;;;;2266760;59;21819;-74
2022/06/29 06:11:54;;;;;;;2.55;1.25;;;19.80;59.30;;;;;;2266918;59;21080;-75
2022/06/29 06:14:22;;;;;;;4.10;1.27;;;19.90;58.90;;;;;;2266781;59;21189;-75
2022/06/29 06:16:50;;;;;;;2.97;1.35;;;19.90;59.00;;;;;;2266130;59;21065;-75
2022/06/29 06:19:17;;;;;;;2.15;1.25;;;20.00;58.60;;;;;;2266394;59;21653;-75
2022/06/29 06:21:45;;;;;;;2.25;1.30;;;20.10;58.60;;;;;;2266610;59;21057;-75
2022/06/29 06:24:12;;;;;;;2.83;1.30;;;20.10;58.60;;;;;;2266549;59;21152;-75
2022/06/29 06:26:40;;;;;;;1.17;1.02;;;20.10;58.60;;;;;;2266370;59;22171;-75
2022/06/29 06:29:07;;;;;;;1.70;1.17;;;20.20;58.50;;;;;;2266611;59;21136;-75
2022/06/29 06:31:35;;;;;;;4.93;1.92;;;20.20;58.50;;;;;;2266786;59;21141;-75
2022/06/29 06:34:02;;;;;;;2.45;1.20;;;20.30;58.20;;;;;;2266135;59;21129;-75
2022/06/29 06:36:30;;;;;;;4.05;1.50;;;20.30;58.30;;;;;;2266461;59;21630;-75
2022/06/29 06:38:57;;;;;;;2.37;1.30;;;20.40;58.40;;;;;;2266605;59;21124;-75
2022/06/29 06:41:25;;;;;;;1.62;1.30;;;20.40;58.30;;;;;;2266378;59;21088;-75
2022/06/29 06:43:55;;;;;;;2.08;1.10;;;20.50;58.10;;;;;;2266657;59;21076;-76
2022/06/29 06:46:23;;;;;;;1.27;1.15;;;20.60;57.90;;;;;;2266446;59;21663;-76
2022/06/29 06:48:51;;;;;;;1.67;1.23;;;20.60;58.00;;;;;;2265982;59;21136;-76
2022/06/29 06:51:20;;;;;;;1.27;1.00;;;20.70;57.90;;;;;;2266327;59;21084;-76
2022/06/29 06:53:48;;;;;;;1.98;1.17;;;20.70;58.00;;;;;;2266561;59;21136;-76
2022/06/29 06:56:16;;;;;;;3.30;1.27;;;20.80;57.80;;;;;;2496216;55;21208;-76
2022/06/29 06:58:44;;;;;;;2.95;1.30;;;20.80;57.60;;;;;;2266642;59;21595;-76
2022/06/29 07:01:12;;;;;;;2.22;1.77;;;20.90;57.80;;;;;;2266833;59;21571;-76
2022/06/29 07:03:39;;;;;;;5.55;1.40;;;21.00;58.50;;;;;;2265760;59;21084;-76
2022/06/29 07:06:09;;;;;;;1.30;1.20;;;21.00;58.00;;;;;;2266716;59;21654;-76
2022/06/29 07:08:38;;;;;;;1.87;1.35;;;21.10;57.40;;;;;;2266554;59;21124;-76
2022/06/29 07:11:06;;;;;;;1.40;1.20;;;21.20;57.30;;;;;;2266387;59;21658;-76
2022/06/29 07:13:34;;;;;;;3.08;1.48;;;21.20;57.50;;;;;;2266612;59;21079;-76
2022/06/29 07:16:03;;;;;;;3.83;1.25;;;21.30;57.40;;;;;;2266370;59;21093;-76
2022/06/29 07:18:31;;;;;;;2.00;1.15;;;21.40;57.30;;;;;;2266892;59;21152;-76
2022/06/29 07:20:59;;;;;;;2.65;1.23;;;21.50;57.70;;;;;;2267077;59;21077;-76
2022/06/29 07:23:27;;;;;;;2.10;1.40;;;21.50;57.50;;;;;;2266686;59;21073;-76
2022/06/29 07:25:55;;;;;;;2.15;1.20;;;21.60;57.50;;;;;;2265739;59;21631;-76
2022/06/29 07:28:23;;;;;;;1.65;1.20;;;21.80;57.20;;;;;;2266985;59;21144;-76
2022/06/29 07:30:51;;;;;;;3.25;1.12;;;21.80;56.40;;;;;;2266623;59;21073;-76
2022/06/29 07:33:18;;;;;;;3.12;1.25;;;21.90;56.40;;;;;;2267003;59;21172;-76
2022/06/29 07:35:46;;;;;;;1.42;1.30;;;21.90;55.90;;;;;;2266610;59;21531;-76
2022/06/29 07:38:13;;;;;;;3.72;1.30;;;22.00;56.20;;;;;;2266834;59;21722;-76
2022/06/29 07:40:41;;;;;;;1.20;1.10;;;22.20;56.70;;;;;;2266390;59;21088;-76
2022/06/29 07:43:09;;;;;;;1.50;1.15;;;22.30;57.00;;;;;;2266550;59;21212;-76
2022/06/29 07:45:36;;;;;;;1.42;1.23;;;22.30;55.90;;;;;;2266335;59;21415;-76
2022/06/29 07:48:05;;;;;;;1.30;1.20;;;22.40;56.10;;;;;;2266955;59;21092;-76
2022/06/29 07:50:33;;;;;;;2.58;1.30;;;22.60;56.40;;;;;;2266657;59;21675;-76
2022/06/29 07:53:00;;;;;;;1.60;1.20;;;22.70;56.20;;;;;;2496717;55;21183;-76
2022/06/29 07:55:28;;;;;;;2.17;1.40;;;22.80;55.50;;;;;;2265905;59;21084;-76
2022/06/29 07:57:55;;;;;;;2.97;1.10;;;22.90;55.30;;;;;;2266566;59;21148;-76
2022/06/29 08:00:23;;;;;;;1.08;0.93;;;23.00;54.80;;;;;;2266638;59;21073;-76
2022/06/29 08:02:51;;;;;;;3.50;1.40;;;23.10;54.90;;;;;;2266769;59;21081;-76
2022/06/29 08:05:19;;;;;;;1.98;1.37;;;23.10;54.90;;;;;;2266608;59;21081;-76
2022/06/29 08:07:47;;;;;;;4.35;1.20;;;23.20;54.40;;;;;;2266958;59;21079;-76
2022/06/29 08:10:14;;;;;;;2.90;1.30;;;23.30;54.10;;;;;;2496154;55;21623;-76
2022/06/29 08:12:42;;;;;;;1.98;1.23;;;23.30;54.10;;;;;;2267081;59;21121;-76
2022/06/29 08:15:11;;;;;;;2.58;1.27;;;23.40;54.20;;;;;;2266653;59;21077;-76
2022/06/29 08:17:38;;;;;;;4.10;1.25;;;23.40;53.20;;;;;;2266816;59;21077;-76
2022/06/29 08:20:08;;;;;;;4.32;1.20;;;23.50;53.30;;;;;;2266690;59;21080;-76
2022/06/29 08:22:36;;;;;;;1.75;1.20;;;23.50;53.70;;;;;;2265173;59;21143;-76
2022/06/29 08:25:05;;;;;;;3.45;1.27;;;23.50;53.50;;;;;;2266349;59;21081;-76
2022/06/29 08:27:33;;;;;;;2.47;1.50;;;23.60;54.10;;;;;;2266429;59;21152;-76
2022/06/29 08:30:01;;;;;;;2.12;1.33;;;23.60;53.70;;;;;;2265876;59;21646;-76
2022/06/29 08:32:29;;;;;;;1.67;1.17;;;23.70;53.70;;;;;;2266298;59;21626;-76
2022/06/29 08:34:59;;;;;;;1.80;1.17;;;23.70;53.10;;;;;;2266505;59;21120;-76
2022/06/29 08:37:27;;;;;;;4.53;1.83;;;23.80;52.70;;;;;;2266407;59;21088;-76
2022/06/29 08:39:54;;;;;;;2.97;1.48;;;23.80;52.90;;;;;;2266375;59;21140;-76
2022/06/29 08:42:23;;;;;;;1.83;1.20;;;23.90;52.50;;;;;;2266894;59;21065;-76
2022/06/29 08:44:51;;;;;;;1.75;1.30;;;24.00;52.60;;;;;;2266140;59;21599;-76
2022/06/29 08:47:19;;;;;;;1.87;1.10;;;24.00;52.70;;;;;;2266051;59;21480;-76
2022/06/29 08:49:46;;;;;;;2.72;1.20;;;24.00;52.40;;;;;;2266453;59;21101;-76
2022/06/29 08:52:15;;;;;;;3.80;1.58;;;24.00;52.40;;;;;;2266338;59;21694;-76
2022/06/29 08:54:46;;;;;;;1.10;1.00;;;24.10;51.70;;;;;;2496629;55;21718;-76
2022/06/29 08:57:14;;;;;;;1.80;1.50;;;24.10;51.80;;;;;;2266607;59;21068;-76
2022/06/29 08:59:41;;;;;;;2.90;1.40;;;24.10;51.60;;;;;;2266916;59;21116;-76
2022/06/29 09:02:10;;;;;;;1.65;1.27;;;24.10;51.60;;;;;;2266061;59;21559;-76
2022/06/29 09:04:39;;;;;;;2.28;1.00;;;24.10;51.70;;;;;;2266771;59;21559;-76
2022/06/29 09:07:07;;;;;;;3.55;1.60;;;24.10;51.40;;;;;;2266453;59;21621;-76
2022/06/29 09:09:57;;;;;;;1.58;1.40;;;24.10;51.50;;;;;;2496767;55;21426;-76
2022/06/29 09:12:25;;;;;;;2.25;1.40;;;24.20;51.80;;;;;;2266988;59;21060;-76
2022/06/29 09:14:53;;;;;;;3.70;1.50;;;24.20;51.20;;;;;;2266704;59;21160;-76
2022/06/29 09:17:21;;;;;;;1.85;1.58;;;24.20;51.20;;;;;;2266574;59;21220;-76
2022/06/29 09:19:49;;;;;;;1.60;1.50;;;24.30;51.20;;;;;;2266759;59;21120;-76
2022/06/29 09:22:16;;;;;;;1.20;1.10;;;24.30;51.00;;;;;;2266688;59;21072;-76
2022/06/29 09:24:44;;;;;;;2.10;1.50;;;24.30;51.70;;;;;;2266723;59;21587;-76
2022/06/29 09:27:12;;;;;;;1.30;1.20;;;24.40;51.70;;;;;;2266149;59;21590;-76
2022/06/29 09:29:41;;;;;;;1.40;1.10;;;24.50;51.60;;;;;;2266632;59;22282;-76
2022/06/29 09:32:14;;;;;;;1.50;1.40;;;24.50;51.40;;;;;;2266093;59;21085;-76
2022/06/29 09:34:43;;;;;;;1.37;1.25;;;24.50;51.40;;;;;;2266104;59;21140;-76
2022/06/29 09:37:12;;;;;;;2.80;1.90;;;24.60;51.20;;;;;;2496650;55;21152;-76
2022/06/29 09:39:42;;;;;;;1.33;1.20;;;24.60;50.90;;;;;;2266686;59;21060;-76
2022/06/29 09:42:11;;;;;;;1.87;1.12;;;24.70;51.00;;;;;;2267034;59;21136;-76
2022/06/29 09:44:39;;;;;;;1.92;1.50;;;24.80;50.70;;;;;;2267101;59;21065;-76
2022/06/29 09:47:08;;;;;;;1.65;1.30;;;24.80;50.70;;;;;;2265705;59;21144;-76
2022/06/29 09:49:37;;;;;;;5.68;1.70;;;24.80;50.40;;;;;;2266577;59;21072;-76
2022/06/29 09:52:06;;;;;;;1.83;1.40;;;24.90;50.20;;;;;;2266817;59;21578;-76
2022/06/29 09:54:38;;;;;;;1.98;1.12;;;24.90;50.90;;;;;;2267011;59;21132;-76
2022/06/29 09:57:07;;;;;;;1.50;1.40;;;25.00;51.20;;;;;;2266561;59;21076;-76
2022/06/29 10:02:37;;;;;;;3.55;1.60;;;25.10;50.90;;;;;;2266530;59;21033;-76
2022/06/29 10:05:07;;;;;;;1.42;1.20;;;25.20;49.90;;;;;;2266686;59;21450;-76
2022/06/29 10:07:38;;;;;;;4.22;1.40;;;25.20;50.20;;;;;;2266361;59;21670;-76
2022/06/29 10:10:09;;;;;;;2.05;1.17;;;25.30;50.20;;;;;;2266895;59;21128;-76
2022/06/29 10:15:46;;;;;;;2.60;1.20;;;25.40;49.90;;;;;;2329225;57;21363;-76
2022/06/29 10:18:25;;;;;;;1.70;1.45;;;25.40;49.50;;;;;;2433907;54;21052;-75
2022/06/29 10:20:53;;;;;;;2.42;1.23;;;25.50;49.20;;;;;;2356330;57;21525;-75
2022/06/29 10:23:44;;;;;;;1.80;1.33;;;25.50;48.50;;;;;;2357970;57;21118;-74
2022/06/29 10:26:44;;;;;;;1.65;1.23;;;25.60;49.10;;;;;;2357091;57;21587;-75
2022/06/29 10:29:33;;;;;;;1.77;1.10;;;25.70;49.20;;;;;;2357481;57;21064;-73
2022/06/29 10:32:14;;;;;;;2.87;1.50;;;25.80;48.50;;;;;;2465492;53;21054;-75
2022/06/29 10:37:30;;;;;;;2.62;1.30;;;25.80;47.80;;;;;;2357311;53;21070;-75
2022/06/29 10:40:04;;;;;;;1.58;1.40;;;25.90;47.30;;;;;;2357795;57;21038;-74
2022/06/29 10:45:37;;;;;;;2.42;1.40;;;26.00;47.50;;;;;;2356537;53;21002;-74
2022/06/29 10:48:21;;;;;;;1.65;1.52;;;26.00;47.00;;;;;;2357267;57;21142;-75
2022/06/29 10:50:49;;;;;;;1.45;1.35;;;26.00;46.90;;;;;;2357441;57;21375;-75
2022/06/29 10:53:18;;;;;;;1.95;1.40;;;26.10;46.80;;;;;;2357682;57;21074;-76
2022/06/29 10:55:47;;;;;;;1.70;1.30;;;26.10;46.30;;;;;;2357604;57;21027;-76
2022/06/29 10:58:16;;;;;;;1.23;1.10;;;26.10;46.10;;;;;;2357772;57;21134;-75
2022/06/29 11:00:45;;;;;;;1.70;1.30;;;26.20;46.00;;;;;;2357068;57;21071;-75
2022/06/29 11:03:16;;;;;;;1.40;1.30;;;26.20;45.90;;;;;;2406607;53;21066;-76
2022/06/29 11:14:05;;;;;;;1.48;1.30;;;26.40;46.30;;;;;;2356530;53;21078;-73
2022/06/29 11:16:35;;;;;;;4.00;1.30;;;26.50;45.40;;;;;;2356970;57;21055;-75
2022/06/29 11:19:04;;;;;;;1.27;1.17;;;26.60;45.50;;;;;;2355316;57;21125;-75
2022/06/29 11:21:32;;;;;;;2.55;1.27;;;26.70;45.30;;;;;;2354408;57;21564;-76
2022/06/29 11:24:03;;;;;;;1.52;1.00;;;26.80;45.80;;;;;;2356487;57;21027;-76
2022/06/29 11:26:31;;;;;;;1.30;1.20;;;26.90;45.50;;;;;;2357234;57;21114;-76
2022/06/29 11:28:59;;;;;;;2.42;1.15;;;27.00;44.70;;;;;;2357213;57;21138;-76
2022/06/29 11:31:27;;;;;;;1.10;1.00;;;27.10;45.00;;;;;;2356727;57;21114;-76
2022/06/29 11:33:55;;;;;;;3.37;1.20;;;27.20;44.80;;;;;;2356974;57;21119;-76
2022/06/29 11:36:26;;;;;;;2.05;1.27;;;27.30;43.70;;;;;;2366641;53;21631;-76
2022/06/29 11:38:55;;;;;;;1.10;1.00;;;27.30;42.60;;;;;;2357633;57;21062;-75
2022/06/29 11:41:25;;;;;;;1.15;1.00;;;27.40;43.20;;;;;;2356762;57;21632;-76
2022/06/29 11:44:04;;;;;;;1.55;1.17;;;27.50;43.50;;;;;;2357649;57;21058;-75
2022/06/29 11:46:35;;;;;;;1.27;1.10;;;27.70;42.70;;;;;;2357237;57;21133;-76
2022/06/29 11:51:56;;;;;;;1.62;1.40;;;27.80;40.50;;;;;;2381822;53;21110;-76
2022/06/29 11:54:37;;;;;;;1.48;1.10;;;27.90;40.30;;;;;;2357913;57;21593;-76
2022/06/29 11:57:07;;;;;;;3.10;1.30;;;28.00;39.60;;;;;;2356802;57;21038;-76
2022/06/29 11:59:35;;;;;;;1.10;1.00;;;28.00;39.40;;;;;;2356927;57;21042;-75
2022/06/29 12:02:03;;;;;;;2.58;1.35;;;28.00;40.00;;;;;;2357741;57;21358;-76
2022/06/29 12:04:32;;;;;;;2.60;1.27;;;27.90;40.10;;;;;;2357733;57;21034;-76
2022/06/29 12:07:08;;;;;;;1.20;1.10;;;27.90;40.50;;;;;;2357680;57;21051;-76
2022/06/29 12:09:37;;;;;;;1.58;1.10;;;28.00;41.00;;;;;;2357685;57;21943;-75
2022/06/29 12:12:06;;;;;;;1.87;1.50;;;28.10;40.20;;;;;;2357810;57;21070;-76
2022/06/29 12:14:34;;;;;;;1.25;1.12;;;28.30;40.50;;;;;;2356779;57;21416;-76
2022/06/29 12:17:02;;;;;;;1.30;1.15;;;28.40;40.80;;;;;;2357481;57;21122;-75
2022/06/29 12:19:30;;;;;;;3.47;1.25;;;28.40;39.80;;;;;;2357806;57;21643;-76
2022/06/29 12:21:58;;;;;;;1.85;1.00;;;28.40;39.10;;;;;;2357836;57;21428;-76
2022/06/29 12:24:28;;;;;;;1.33;1.00;;;28.40;39.10;;;;;;2356307;57;21086;-76
2022/06/29 12:26:56;;;;;;;1.15;0.98;;;28.40;39.30;;;;;;2357241;57;21106;-76
2022/06/29 12:29:23;;;;;;;2.75;1.17;;;28.40;39.30;;;;;;2547758;53;21565;-76
2022/06/29 12:31:51;;;;;;;2.58;1.20;;;28.40;38.90;;;;;;2357945;57;21122;-75
2022/06/29 12:34:18;;;;;;;1.58;1.25;;;28.40;39.20;;;;;;2357705;57;21110;-74
2022/06/29 12:36:46;;;;;;;1.48;1.30;;;28.50;39.50;;;;;;2357531;57;21193;-73
2022/06/29 12:39:13;;;;;;;1.23;0.98;;;28.50;38.90;;;;;;2530775;53;21121;-72
2022/06/29 12:41:41;;;;;;;2.03;1.23;;;28.50;38.50;;;;;;2357231;57;21075;-76
2022/06/29 12:44:09;;;;;;;1.80;0.95;;;28.50;38.70;;;;;;2357456;57;21048;-76
2022/06/29 12:46:39;;;;;;;5.45;1.30;;;28.50;39.60;;;;;;2357212;57;21117;-76
2022/06/29 12:49:06;;;;;;;2.72;1.10;;;28.70;39.60;;;;;;2357799;57;21189;-76
2022/06/29 12:51:34;;;;;;;1.50;1.20;;;28.80;38.90;;;;;;2357754;57;21329;-75
2022/06/29 12:54:01;;;;;;;1.90;1.10;;;28.80;38.70;;;;;;2357024;57;21541;-76
2022/06/29 12:56:29;;;;;;;2.17;1.10;;;28.80;37.60;;;;;;2356789;57;21046;-76
2022/06/29 12:58:57;;;;;;;2.22;1.10;;;28.90;37.80;;;;;;2357811;57;21122;-76
2022/06/29 13:01:25;;;;;;;1.12;1.00;;;29.00;37.50;;;;;;2357632;57;21620;-75
2022/06/29 13:03:52;;;;;;;1.55;1.30;;;29.10;37.20;;;;;;2361682;53;21352;-76
2022/06/29 13:06:20;;;;;;;1.90;1.30;;;29.20;37.30;;;;;;2357355;57;21549;-76
2022/06/29 13:08:47;;;;;;;2.15;1.42;;;29.40;37.20;;;;;;2357325;57;21066;-76
2022/06/29 13:11:15;;;;;;;2.70;1.17;;;29.50;36.60;;;;;;2357719;57;21122;-76
2022/06/29 13:13:42;;;;;;;2.45;1.00;;;29.70;36.90;;;;;;2356883;57;21062;-75
2022/06/29 13:16:10;;;;;;;1.87;1.00;;;29.80;36.70;;;;;;2362532;53;21066;-75
2022/06/29 13:18:37;;;;;;;1.58;1.10;;;30.00;37.10;;;;;;2357395;57;21055;-76
2022/06/29 13:21:05;;;;;;;2.78;1.10;;;30.10;37.80;;;;;;2356976;57;21125;-76
2022/06/29 13:23:32;;;;;;;1.73;0.85;;;30.20;37.60;;;;;;2357618;57;21066;-75
2022/06/29 13:26:00;;;;;;;1.10;1.00;;;30.30;36.80;;;;;;2353973;57;21046;-75
2022/06/29 13:28:27;;;;;;;1.10;1.00;;;30.50;36.20;;;;;;2361997;53;21054;-75
2022/06/29 13:30:55;;;;;;;1.85;1.00;;;30.50;34.60;;;;;;2354970;57;21118;-75